sensor_id;sensor_type;location;lat;lon;timestamp;temperature;humidity
7658;DHT22;8462;53.156;8.220;2023-06-26T00:00:11;25.00;88.20
7658;DHT22;8462;53.156;8.220;2023-06-26T00:02:39;24.90;88.40
7658;DHT22;8462;53.156;8.220;2023-06-26T00:05:07;24.90;88.70
7658;DHT22;8462;53.156;8.220;2023-06-26T00:07:34;24.80;88.80
7658;DHT22;8462;53.156;8.220;2023-06-26T00:10:01;24.80;89.00
7658;DHT22;8462;53.156;8.220;2023-06-26T00:12:29;24.70;89.10
7658;DHT22;8462;53.156;8.220;2023-06-26T00:14:56;24.70;89.40
7658;DHT22;8462;53.156;8.220;2023-06-26T00:17:25;24.70;89.50
7658;DHT22;8462;53.156;8.220;2023-06-26T00:19:52;24.70;89.80
7658;DHT22;8462;53.156;8.220;2023-06-26T00:22:20;24.60;89.90
7658;DHT22;8462;53.156;8.220;2023-06-26T00:24:47;24.60;90.00
7658;DHT22;8462;53.156;8.220;2023-06-26T00:27:15;24.50;90.00
7658;DHT22;8462;53.156;8.220;2023-06-26T00:29:43;24.50;90.10
7658;DHT22;8462;53.156;8.220;2023-06-26T00:32:10;24.50;90.20
7658;DHT22;8462;53.156;8.220;2023-06-26T00:34:38;24.50;90.20
7658;DHT22;8462;53.156;8.220;2023-06-26T00:37:05;24.40;90.30
7658;DHT22;8462;53.156;8.220;2023-06-26T00:39:32;24.40;90.40
7658;DHT22;8462;53.156;8.220;2023-06-26T00:42:00;24.40;90.40
7658;DHT22;8462;53.156;8.220;2023-06-26T00:44:27;24.40;90.40
7658;DHT22;8462;53.156;8.220;2023-06-26T00:46:54;24.40;90.60
7658;DHT22;8462;53.156;8.220;2023-06-26T00:49:22;24.30;90.60
7658;DHT22;8462;53.156;8.220;2023-06-26T00:51:50;24.30;90.70
7658;DHT22;8462;53.156;8.220;2023-06-26T00:54:18;24.30;90.80
7658;DHT22;8462;53.156;8.220;2023-06-26T00:56:48;24.20;90.80
7658;DHT22;8462;53.156;8.220;2023-06-26T00:59:15;24.20;91.00
7658;DHT22;8462;53.156;8.220;2023-06-26T01:01:42;24.20;90.90
7658;DHT22;8462;53.156;8.220;2023-06-26T01:04:10;24.20;91.00
7658;DHT22;8462;53.156;8.220;2023-06-26T01:06:44;24.20;91.10
7658;DHT22;8462;53.156;8.220;2023-06-26T01:09:17;24.20;91.20
7658;DHT22;8462;53.156;8.220;2023-06-26T01:11:45;24.20;91.20
7658;DHT22;8462;53.156;8.220;2023-06-26T01:14:12;24.10;91.20
7658;DHT22;8462;53.156;8.220;2023-06-26T01:16:39;24.10;91.20
7658;DHT22;8462;53.156;8.220;2023-06-26T01:19:11;24.10;91.80
7658;DHT22;8462;53.156;8.220;2023-06-26T01:21:43;24.10;91.40
7658;DHT22;8462;53.156;8.220;2023-06-26T01:24:17;24.10;91.50
7658;DHT22;8462;53.156;8.220;2023-06-26T01:26:51;24.00;91.60
7658;DHT22;8462;53.156;8.220;2023-06-26T01:29:18;24.00;91.60
7658;DHT22;8462;53.156;8.220;2023-06-26T01:31:47;24.00;91.60
7658;DHT22;8462;53.156;8.220;2023-06-26T01:34:15;23.90;91.70
7658;DHT22;8462;53.156;8.220;2023-06-26T01:36:44;23.90;91.70
7658;DHT22;8462;53.156;8.220;2023-06-26T01:39:15;23.90;91.80
7658;DHT22;8462;53.156;8.220;2023-06-26T01:41:43;23.90;91.90
7658;DHT22;8462;53.156;8.220;2023-06-26T01:44:23;23.90;92.00
7658;DHT22;8462;53.156;8.220;2023-06-26T01:46:59;23.80;92.10
7658;DHT22;8462;53.156;8.220;2023-06-26T01:49:34;23.80;92.20
7658;DHT22;8462;53.156;8.220;2023-06-26T01:52:08;23.80;92.20
7658;DHT22;8462;53.156;8.220;2023-06-26T01:54:42;23.80;92.30
7658;DHT22;8462;53.156;8.220;2023-06-26T01:57:11;23.70;92.30
7658;DHT22;8462;53.156;8.220;2023-06-26T01:59:40;23.70;92.40
7658;DHT22;8462;53.156;8.220;2023-06-26T02:02:09;23.70;92.50
7658;DHT22;8462;53.156;8.220;2023-06-26T02:04:37;23.70;92.50
7658;DHT22;8462;53.156;8.220;2023-06-26T02:07:05;23.60;92.60
7658;DHT22;8462;53.156;8.220;2023-06-26T02:09:32;23.60;92.70
7658;DHT22;8462;53.156;8.220;2023-06-26T02:11:59;23.60;92.80
7658;DHT22;8462;53.156;8.220;2023-06-26T02:14:26;23.60;92.80
7658;DHT22;8462;53.156;8.220;2023-06-26T02:16:54;23.60;92.80
7658;DHT22;8462;53.156;8.220;2023-06-26T02:19:21;23.60;92.80
7658;DHT22;8462;53.156;8.220;2023-06-26T02:21:48;23.60;92.90
7658;DHT22;8462;53.156;8.220;2023-06-26T02:24:15;23.50;93.00
7658;DHT22;8462;53.156;8.220;2023-06-26T02:26:42;23.50;93.00
7658;DHT22;8462;53.156;8.220;2023-06-26T02:29:10;23.50;93.00
7658;DHT22;8462;53.156;8.220;2023-06-26T02:31:39;23.50;93.10
7658;DHT22;8462;53.156;8.220;2023-06-26T02:34:07;23.50;93.20
7658;DHT22;8462;53.156;8.220;2023-06-26T02:36:34;23.40;93.10
7658;DHT22;8462;53.156;8.220;2023-06-26T02:39:04;23.40;93.10
7658;DHT22;8462;53.156;8.220;2023-06-26T02:41:32;23.40;93.10
7658;DHT22;8462;53.156;8.220;2023-06-26T02:44:00;23.40;93.10
7658;DHT22;8462;53.156;8.220;2023-06-26T02:46:27;23.40;93.10
7658;DHT22;8462;53.156;8.220;2023-06-26T02:48:55;23.40;93.20
7658;DHT22;8462;53.156;8.220;2023-06-26T02:51:23;23.40;93.20
7658;DHT22;8462;53.156;8.220;2023-06-26T02:53:52;23.30;93.10
7658;DHT22;8462;53.156;8.220;2023-06-26T02:56:19;23.30;93.20
7658;DHT22;8462;53.156;8.220;2023-06-26T02:58:46;23.30;93.20
7658;DHT22;8462;53.156;8.220;2023-06-26T03:01:12;23.30;93.20
7658;DHT22;8462;53.156;8.220;2023-06-26T03:03:41;23.30;93.20
7658;DHT22;8462;53.156;8.220;2023-06-26T03:06:13;23.30;93.30
7658;DHT22;8462;53.156;8.220;2023-06-26T03:08:42;23.20;93.20
7658;DHT22;8462;53.156;8.220;2023-06-26T03:11:09;23.20;93.20
7658;DHT22;8462;53.156;8.220;2023-06-26T03:13:39;23.20;93.20
7658;DHT22;8462;53.156;8.220;2023-06-26T03:16:05;23.20;93.20
7658;DHT22;8462;53.156;8.220;2023-06-26T03:18:33;23.20;93.30
7658;DHT22;8462;53.156;8.220;2023-06-26T03:21:00;23.20;93.30
7658;DHT22;8462;53.156;8.220;2023-06-26T03:23:28;23.20;93.30
7658;DHT22;8462;53.156;8.220;2023-06-26T03:25:56;23.20;93.30
7658;DHT22;8462;53.156;8.220;2023-06-26T03:28:29;23.20;93.20
7658;DHT22;8462;53.156;8.220;2023-06-26T03:30:56;23.20;93.30
7658;DHT22;8462;53.156;8.220;2023-06-26T03:33:25;23.20;93.30
7658;DHT22;8462;53.156;8.220;2023-06-26T03:35:52;23.20;93.20
7658;DHT22;8462;53.156;8.220;2023-06-26T03:38:19;23.20;93.20
7658;DHT22;8462;53.156;8.220;2023-06-26T03:40:47;23.30;93.20
7658;DHT22;8462;53.156;8.220;2023-06-26T03:43:15;23.30;93.10
7658;DHT22;8462;53.156;8.220;2023-06-26T03:46:11;23.40;93.10
7658;DHT22;8462;53.156;8.220;2023-06-26T03:48:38;23.40;93.00
7658;DHT22;8462;53.156;8.220;2023-06-26T03:51:06;23.40;92.90
7658;DHT22;8462;53.156;8.220;2023-06-26T03:53:34;23.50;92.80
7658;DHT22;8462;53.156;8.220;2023-06-26T03:56:00;23.60;92.80
7658;DHT22;8462;53.156;8.220;2023-06-26T03:58:29;23.60;92.60
7658;DHT22;8462;53.156;8.220;2023-06-26T04:00:56;23.60;92.50
7658;DHT22;8462;53.156;8.220;2023-06-26T04:03:24;23.70;92.40
7658;DHT22;8462;53.156;8.220;2023-06-26T04:05:51;23.70;92.30
7658;DHT22;8462;53.156;8.220;2023-06-26T04:08:18;23.80;92.20
7658;DHT22;8462;53.156;8.220;2023-06-26T04:10:46;23.80;92.00
7658;DHT22;8462;53.156;8.220;2023-06-26T04:13:14;23.90;92.00
7658;DHT22;8462;53.156;8.220;2023-06-26T04:15:42;24.10;91.60
7658;DHT22;8462;53.156;8.220;2023-06-26T04:18:09;24.20;91.40
7658;DHT22;8462;53.156;8.220;2023-06-26T04:20:39;24.30;91.10
7658;DHT22;8462;53.156;8.220;2023-06-26T04:23:07;24.40;91.00
7658;DHT22;8462;53.156;8.220;2023-06-26T04:25:34;24.50;90.70
7658;DHT22;8462;53.156;8.220;2023-06-26T04:28:03;24.50;90.70
7658;DHT22;8462;53.156;8.220;2023-06-26T04:30:30;24.60;90.40
7658;DHT22;8462;53.156;8.220;2023-06-26T04:32:58;24.60;90.30
7658;DHT22;8462;53.156;8.220;2023-06-26T04:35:26;24.70;90.30
7658;DHT22;8462;53.156;8.220;2023-06-26T04:37:53;24.80;90.20
7658;DHT22;8462;53.156;8.220;2023-06-26T04:40:20;24.80;90.10
7658;DHT22;8462;53.156;8.220;2023-06-26T04:42:47;24.80;90.10
7658;DHT22;8462;53.156;8.220;2023-06-26T04:45:14;24.80;89.70
7658;DHT22;8462;53.156;8.220;2023-06-26T04:47:41;24.90;90.00
7658;DHT22;8462;53.156;8.220;2023-06-26T04:50:09;25.00;89.70
7658;DHT22;8462;53.156;8.220;2023-06-26T04:52:36;25.00;89.80
7658;DHT22;8462;53.156;8.220;2023-06-26T04:55:03;25.20;89.10
7658;DHT22;8462;53.156;8.220;2023-06-26T04:57:30;25.30;88.60
7658;DHT22;8462;53.156;8.220;2023-06-26T04:59:57;25.50;88.70
7658;DHT22;8462;53.156;8.220;2023-06-26T05:02:24;25.70;87.50
7658;DHT22;8462;53.156;8.220;2023-06-26T05:04:52;25.90;86.90
7658;DHT22;8462;53.156;8.220;2023-06-26T05:07:20;26.20;87.10
7658;DHT22;8462;53.156;8.220;2023-06-26T05:09:47;26.80;84.90
7658;DHT22;8462;53.156;8.220;2023-06-26T05:12:14;27.60;82.80
7658;DHT22;8462;53.156;8.220;2023-06-26T05:14:41;28.30;79.00
7658;DHT22;8462;53.156;8.220;2023-06-26T05:17:08;29.10;76.70
7658;DHT22;8462;53.156;8.220;2023-06-26T05:19:35;29.90;74.90
7658;DHT22;8462;53.156;8.220;2023-06-26T05:22:02;30.70;72.30
7658;DHT22;8462;53.156;8.220;2023-06-26T05:24:34;31.40;70.40
7658;DHT22;8462;53.156;8.220;2023-06-26T05:27:02;31.90;67.70
7658;DHT22;8462;53.156;8.220;2023-06-26T05:29:31;32.30;66.40
7658;DHT22;8462;53.156;8.220;2023-06-26T05:31:58;32.60;64.40
7658;DHT22;8462;53.156;8.220;2023-06-26T05:34:26;32.60;64.30
7658;DHT22;8462;53.156;8.220;2023-06-26T05:36:57;32.60;65.00
7658;DHT22;8462;53.156;8.220;2023-06-26T05:39:25;32.50;64.50
7658;DHT22;8462;53.156;8.220;2023-06-26T05:41:54;32.80;64.10
7658;DHT22;8462;53.156;8.220;2023-06-26T05:44:21;32.80;63.10
7658;DHT22;8462;53.156;8.220;2023-06-26T05:46:47;33.20;63.20
7658;DHT22;8462;53.156;8.220;2023-06-26T05:49:14;33.60;62.10
7658;DHT22;8462;53.156;8.220;2023-06-26T05:51:42;33.90;61.00
7658;DHT22;8462;53.156;8.220;2023-06-26T05:54:09;34.40;60.10
7658;DHT22;8462;53.156;8.220;2023-06-26T05:56:37;34.40;59.30
7658;DHT22;8462;53.156;8.220;2023-06-26T05:59:07;34.60;59.70
7658;DHT22;8462;53.156;8.220;2023-06-26T06:01:34;34.70;58.60
7658;DHT22;8462;53.156;8.220;2023-06-26T06:04:01;34.70;58.10
7658;DHT22;8462;53.156;8.220;2023-06-26T06:06:28;34.80;58.30
7658;DHT22;8462;53.156;8.220;2023-06-26T06:08:55;35.10;57.80
7658;DHT22;8462;53.156;8.220;2023-06-26T06:11:22;35.50;57.50
7658;DHT22;8462;53.156;8.220;2023-06-26T06:13:49;35.80;56.50
7658;DHT22;8462;53.156;8.220;2023-06-26T06:16:17;35.40;56.10
7658;DHT22;8462;53.156;8.220;2023-06-26T06:18:44;34.90;57.50
7658;DHT22;8462;53.156;8.220;2023-06-26T06:21:11;34.40;57.80
7658;DHT22;8462;53.156;8.220;2023-06-26T06:23:37;34.00;58.50
7658;DHT22;8462;53.156;8.220;2023-06-26T06:26:04;33.80;58.90
7658;DHT22;8462;53.156;8.220;2023-06-26T06:28:31;33.70;59.90
7658;DHT22;8462;53.156;8.220;2023-06-26T06:30:58;33.90;59.20
7658;DHT22;8462;53.156;8.220;2023-06-26T06:33:26;33.90;59.10
7658;DHT22;8462;53.156;8.220;2023-06-26T06:35:53;33.60;58.90
7658;DHT22;8462;53.156;8.220;2023-06-26T06:38:20;33.20;59.90
7658;DHT22;8462;53.156;8.220;2023-06-26T06:40:47;33.40;60.60
7658;DHT22;8462;53.156;8.220;2023-06-26T06:43:14;33.70;59.50
7658;DHT22;8462;53.156;8.220;2023-06-26T06:45:41;33.50;59.20
7658;DHT22;8462;53.156;8.220;2023-06-26T06:48:08;33.20;59.90
7658;DHT22;8462;53.156;8.220;2023-06-26T06:50:36;32.80;60.80
7658;DHT22;8462;53.156;8.220;2023-06-26T06:53:03;32.50;61.80
7658;DHT22;8462;53.156;8.220;2023-06-26T06:55:33;32.30;62.50
7658;DHT22;8462;53.156;8.220;2023-06-26T06:57:59;32.30;62.20
7658;DHT22;8462;53.156;8.220;2023-06-26T07:00:26;32.10;62.70
7658;DHT22;8462;53.156;8.220;2023-06-26T07:02:53;31.80;63.60
7658;DHT22;8462;53.156;8.220;2023-06-26T07:05:22;31.60;64.30
7658;DHT22;8462;53.156;8.220;2023-06-26T07:07:50;31.20;64.90
7658;DHT22;8462;53.156;8.220;2023-06-26T07:10:17;30.90;66.10
7658;DHT22;8462;53.156;8.220;2023-06-26T07:12:44;30.70;67.20
7658;DHT22;8462;53.156;8.220;2023-06-26T07:15:11;30.50;67.60
7658;DHT22;8462;53.156;8.220;2023-06-26T07:17:38;30.40;68.90
7658;DHT22;8462;53.156;8.220;2023-06-26T07:20:05;30.40;69.50
7658;DHT22;8462;53.156;8.220;2023-06-26T07:22:33;30.40;69.90
7658;DHT22;8462;53.156;8.220;2023-06-26T07:25:02;30.40;69.50
7658;DHT22;8462;53.156;8.220;2023-06-26T07:27:30;30.20;69.60
7658;DHT22;8462;53.156;8.220;2023-06-26T07:29:58;29.80;70.70
7658;DHT22;8462;53.156;8.220;2023-06-26T07:32:25;29.30;71.80
7658;DHT22;8462;53.156;8.220;2023-06-26T07:34:52;28.70;74.20
7658;DHT22;8462;53.156;8.220;2023-06-26T07:37:19;28.10;78.90
7658;DHT22;8462;53.156;8.220;2023-06-26T07:39:46;27.50;82.80
7658;DHT22;8462;53.156;8.220;2023-06-26T07:42:15;27.10;86.20
7658;DHT22;8462;53.156;8.220;2023-06-26T07:44:42;26.70;88.90
7658;DHT22;8462;53.156;8.220;2023-06-26T07:47:08;26.30;90.20
7658;DHT22;8462;53.156;8.220;2023-06-26T07:49:35;25.90;91.50
7658;DHT22;8462;53.156;8.220;2023-06-26T07:52:05;25.60;92.40
7658;DHT22;8462;53.156;8.220;2023-06-26T07:54:32;25.10;93.00
7658;DHT22;8462;53.156;8.220;2023-06-26T07:57:00;24.70;95.20
7658;DHT22;8462;53.156;8.220;2023-06-26T07:59:29;24.30;96.40
7658;DHT22;8462;53.156;8.220;2023-06-26T08:01:57;24.10;96.80
7658;DHT22;8462;53.156;8.220;2023-06-26T08:04:25;23.90;97.30
7658;DHT22;8462;53.156;8.220;2023-06-26T08:06:53;23.70;98.10
7658;DHT22;8462;53.156;8.220;2023-06-26T08:09:22;23.60;98.30
7658;DHT22;8462;53.156;8.220;2023-06-26T08:11:49;23.40;98.90
7658;DHT22;8462;53.156;8.220;2023-06-26T08:14:16;23.40;99.30
7658;DHT22;8462;53.156;8.220;2023-06-26T08:16:45;23.40;99.80
7658;DHT22;8462;53.156;8.220;2023-06-26T08:19:13;23.50;99.80
7658;DHT22;8462;53.156;8.220;2023-06-26T08:21:40;23.70;99.20
7658;DHT22;8462;53.156;8.220;2023-06-26T08:24:08;24.10;99.20
7658;DHT22;8462;53.156;8.220;2023-06-26T08:26:35;24.50;97.80
7658;DHT22;8462;53.156;8.220;2023-06-26T08:29:02;24.80;96.50
7658;DHT22;8462;53.156;8.220;2023-06-26T08:31:33;25.00;95.00
7658;DHT22;8462;53.156;8.220;2023-06-26T08:34:02;25.00;94.50
7658;DHT22;8462;53.156;8.220;2023-06-26T08:36:29;25.20;94.90
7658;DHT22;8462;53.156;8.220;2023-06-26T08:38:57;25.40;93.50
7658;DHT22;8462;53.156;8.220;2023-06-26T08:41:25;25.60;93.10
7658;DHT22;8462;53.156;8.220;2023-06-26T08:43:52;25.80;93.40
7658;DHT22;8462;53.156;8.220;2023-06-26T08:46:19;26.10;93.00
7658;DHT22;8462;53.156;8.220;2023-06-26T08:48:49;26.20;91.40
7658;DHT22;8462;53.156;8.220;2023-06-26T08:51:24;26.30;92.10
7658;DHT22;8462;53.156;8.220;2023-06-26T08:53:55;26.40;92.00
7658;DHT22;8462;53.156;8.220;2023-06-26T08:56:24;26.50;90.60
7658;DHT22;8462;53.156;8.220;2023-06-26T08:58:52;26.50;90.40
7658;DHT22;8462;53.156;8.220;2023-06-26T09:01:20;26.60;90.30
7658;DHT22;8462;53.156;8.220;2023-06-26T09:03:47;26.80;90.50
7658;DHT22;8462;53.156;8.220;2023-06-26T09:06:14;26.80;88.50
7658;DHT22;8462;53.156;8.220;2023-06-26T09:08:45;26.90;88.70
7658;DHT22;8462;53.156;8.220;2023-06-26T09:11:12;26.90;85.70
7658;DHT22;8462;53.156;8.220;2023-06-26T09:13:39;27.00;85.20
7658;DHT22;8462;53.156;8.220;2023-06-26T09:16:07;27.10;84.50
7658;DHT22;8462;53.156;8.220;2023-06-26T09:18:35;27.10;83.50
7658;DHT22;8462;53.156;8.220;2023-06-26T09:21:06;27.20;84.20
7658;DHT22;8462;53.156;8.220;2023-06-26T09:23:34;27.50;84.00
7658;DHT22;8462;53.156;8.220;2023-06-26T09:26:03;27.60;82.10
7658;DHT22;8462;53.156;8.220;2023-06-26T09:28:31;27.70;81.30
7658;DHT22;8462;53.156;8.220;2023-06-26T09:31:02;27.80;81.60
7658;DHT22;8462;53.156;8.220;2023-06-26T09:33:33;27.90;77.80
7658;DHT22;8462;53.156;8.220;2023-06-26T09:36:01;28.00;75.40
7658;DHT22;8462;53.156;8.220;2023-06-26T09:38:28;28.00;75.20
7658;DHT22;8462;53.156;8.220;2023-06-26T09:40:55;27.90;74.50
7658;DHT22;8462;53.156;8.220;2023-06-26T09:43:23;27.70;73.20
7658;DHT22;8462;53.156;8.220;2023-06-26T09:45:51;27.20;73.70
7658;DHT22;8462;53.156;8.220;2023-06-26T09:48:19;26.90;74.60
7658;DHT22;8462;53.156;8.220;2023-06-26T09:50:46;26.90;76.00
7658;DHT22;8462;53.156;8.220;2023-06-26T09:53:14;26.90;77.40
7658;DHT22;8462;53.156;8.220;2023-06-26T09:55:44;26.90;77.00
7658;DHT22;8462;53.156;8.220;2023-06-26T09:58:11;26.70;74.90
7658;DHT22;8462;53.156;8.220;2023-06-26T10:00:42;26.60;75.20
7658;DHT22;8462;53.156;8.220;2023-06-26T10:03:10;26.60;74.40
7658;DHT22;8462;53.156;8.220;2023-06-26T10:05:38;26.70;74.70
7658;DHT22;8462;53.156;8.220;2023-06-26T10:08:05;26.70;72.30
7658;DHT22;8462;53.156;8.220;2023-06-26T10:10:33;26.60;72.80
7658;DHT22;8462;53.156;8.220;2023-06-26T10:13:11;26.70;71.80
7658;DHT22;8462;53.156;8.220;2023-06-26T10:15:41;26.80;72.30
7658;DHT22;8462;53.156;8.220;2023-06-26T10:18:09;27.00;72.90
7658;DHT22;8462;53.156;8.220;2023-06-26T10:20:37;27.20;71.40
7658;DHT22;8462;53.156;8.220;2023-06-26T10:23:05;27.40;69.10
7658;DHT22;8462;53.156;8.220;2023-06-26T10:25:37;27.30;68.60
7658;DHT22;8462;53.156;8.220;2023-06-26T10:28:08;27.30;70.00
7658;DHT22;8462;53.156;8.220;2023-06-26T10:30:37;27.50;70.70
7658;DHT22;8462;53.156;8.220;2023-06-26T10:33:07;27.60;70.70
7658;DHT22;8462;53.156;8.220;2023-06-26T10:35:42;27.60;69.80
7658;DHT22;8462;53.156;8.220;2023-06-26T10:38:09;27.40;69.10
7658;DHT22;8462;53.156;8.220;2023-06-26T10:40:41;27.20;69.70
7658;DHT22;8462;53.156;8.220;2023-06-26T10:43:09;27.20;69.80
7658;DHT22;8462;53.156;8.220;2023-06-26T10:45:38;27.20;70.10
7658;DHT22;8462;53.156;8.220;2023-06-26T10:48:12;27.20;69.70
7658;DHT22;8462;53.156;8.220;2023-06-26T10:50:39;27.20;69.30
7658;DHT22;8462;53.156;8.220;2023-06-26T10:53:11;27.20;70.20
7658;DHT22;8462;53.156;8.220;2023-06-26T10:55:43;27.40;69.30
7658;DHT22;8462;53.156;8.220;2023-06-26T10:58:27;27.40;68.40
7658;DHT22;8462;53.156;8.220;2023-06-26T11:01:19;27.60;69.00
7658;DHT22;8462;53.156;8.220;2023-06-26T11:03:49;27.70;67.70
7658;DHT22;8462;53.156;8.220;2023-06-26T11:06:18;27.60;68.70
7658;DHT22;8462;53.156;8.220;2023-06-26T11:08:46;27.60;68.50
7658;DHT22;8462;53.156;8.220;2023-06-26T11:11:15;27.40;68.50
7658;DHT22;8462;53.156;8.220;2023-06-26T11:13:42;27.30;69.10
7658;DHT22;8462;53.156;8.220;2023-06-26T11:16:11;27.20;68.90
7658;DHT22;8462;53.156;8.220;2023-06-26T11:18:38;27.10;68.20
7658;DHT22;8462;53.156;8.220;2023-06-26T11:21:07;27.10;69.40
7658;DHT22;8462;53.156;8.220;2023-06-26T11:23:36;27.10;69.60
7658;DHT22;8462;53.156;8.220;2023-06-26T11:26:14;27.10;69.50
7658;DHT22;8462;53.156;8.220;2023-06-26T11:28:47;27.20;69.60
7658;DHT22;8462;53.156;8.220;2023-06-26T11:31:30;27.20;69.30
7658;DHT22;8462;53.156;8.220;2023-06-26T11:33:58;27.10;68.10
7658;DHT22;8462;53.156;8.220;2023-06-26T11:36:27;27.10;68.80
7658;DHT22;8462;53.156;8.220;2023-06-26T11:38:54;26.90;68.30
7658;DHT22;8462;53.156;8.220;2023-06-26T11:41:22;26.80;68.70
7658;DHT22;8462;53.156;8.220;2023-06-26T11:43:51;26.80;69.30
7658;DHT22;8462;53.156;8.220;2023-06-26T11:46:18;26.80;69.60
7658;DHT22;8462;53.156;8.220;2023-06-26T11:48:46;26.80;69.00
7658;DHT22;8462;53.156;8.220;2023-06-26T11:51:13;27.10;67.70
7658;DHT22;8462;53.156;8.220;2023-06-26T11:53:43;27.20;68.10
7658;DHT22;8462;53.156;8.220;2023-06-26T11:56:11;27.30;69.00
7658;DHT22;8462;53.156;8.220;2023-06-26T11:58:56;27.50;68.20
7658;DHT22;8462;53.156;8.220;2023-06-26T12:01:24;27.40;67.70
7658;DHT22;8462;53.156;8.220;2023-06-26T12:03:58;27.30;68.10
7658;DHT22;8462;53.156;8.220;2023-06-26T12:06:26;27.30;69.00
7658;DHT22;8462;53.156;8.220;2023-06-26T12:08:54;27.50;68.70
7658;DHT22;8462;53.156;8.220;2023-06-26T12:11:22;27.60;67.70
7658;DHT22;8462;53.156;8.220;2023-06-26T12:13:50;27.60;66.90
7658;DHT22;8462;53.156;8.220;2023-06-26T12:16:18;27.40;65.90
7658;DHT22;8462;53.156;8.220;2023-06-26T12:18:47;27.40;66.60
7658;DHT22;8462;53.156;8.220;2023-06-26T12:21:45;27.50;66.80
7658;DHT22;8462;53.156;8.220;2023-06-26T12:24:15;27.80;66.70
7658;DHT22;8462;53.156;8.220;2023-06-26T12:26:44;27.90;64.50
7658;DHT22;8462;53.156;8.220;2023-06-26T12:29:12;27.80;65.60
7658;DHT22;8462;53.156;8.220;2023-06-26T12:31:43;27.60;66.10
7658;DHT22;8462;53.156;8.220;2023-06-26T12:34:11;27.40;65.40
7658;DHT22;8462;53.156;8.220;2023-06-26T12:36:40;27.20;65.70
7658;DHT22;8462;53.156;8.220;2023-06-26T12:39:09;27.20;64.70
7658;DHT22;8462;53.156;8.220;2023-06-26T12:41:46;27.20;65.10
7658;DHT22;8462;53.156;8.220;2023-06-26T12:44:19;27.30;66.20
7658;DHT22;8462;53.156;8.220;2023-06-26T12:46:47;27.40;67.40
7658;DHT22;8462;53.156;8.220;2023-06-26T12:49:15;27.40;66.50
7658;DHT22;8462;53.156;8.220;2023-06-26T12:51:42;27.40;67.30
7658;DHT22;8462;53.156;8.220;2023-06-26T12:54:09;27.50;67.20
7658;DHT22;8462;53.156;8.220;2023-06-26T12:56:36;27.70;66.90
7658;DHT22;8462;53.156;8.220;2023-06-26T12:59:04;27.80;65.20
7658;DHT22;8462;53.156;8.220;2023-06-26T13:01:31;27.70;64.70
7658;DHT22;8462;53.156;8.220;2023-06-26T13:03:59;27.60;65.70
7658;DHT22;8462;53.156;8.220;2023-06-26T13:06:27;27.40;63.90
7658;DHT22;8462;53.156;8.220;2023-06-26T13:08:54;27.50;62.70
7658;DHT22;8462;53.156;8.220;2023-06-26T13:11:21;27.40;63.90
7658;DHT22;8462;53.156;8.220;2023-06-26T13:13:48;27.30;65.20
7658;DHT22;8462;53.156;8.220;2023-06-26T13:16:16;27.30;66.00
7658;DHT22;8462;53.156;8.220;2023-06-26T13:18:44;27.30;64.40
7658;DHT22;8462;53.156;8.220;2023-06-26T13:21:12;27.30;65.20
7658;DHT22;8462;53.156;8.220;2023-06-26T13:23:39;27.30;64.60
7658;DHT22;8462;53.156;8.220;2023-06-26T13:26:06;27.20;64.60
7658;DHT22;8462;53.156;8.220;2023-06-26T13:28:33;27.10;65.00
7658;DHT22;8462;53.156;8.220;2023-06-26T13:31:00;27.00;65.00
7658;DHT22;8462;53.156;8.220;2023-06-26T13:33:29;26.80;65.60
7658;DHT22;8462;53.156;8.220;2023-06-26T13:35:56;26.70;65.50
7658;DHT22;8462;53.156;8.220;2023-06-26T13:38:23;26.70;66.30
7658;DHT22;8462;53.156;8.220;2023-06-26T13:40:51;26.60;66.10
7658;DHT22;8462;53.156;8.220;2023-06-26T13:43:20;26.50;65.70
7658;DHT22;8462;53.156;8.220;2023-06-26T13:45:47;26.50;66.60
7658;DHT22;8462;53.156;8.220;2023-06-26T13:48:14;26.50;66.70
7658;DHT22;8462;53.156;8.220;2023-06-26T13:50:42;26.60;66.80
7658;DHT22;8462;53.156;8.220;2023-06-26T13:53:11;26.50;66.50
7658;DHT22;8462;53.156;8.220;2023-06-26T13:55:39;26.30;66.90
7658;DHT22;8462;53.156;8.220;2023-06-26T13:58:08;26.30;67.30
7658;DHT22;8462;53.156;8.220;2023-06-26T14:00:35;26.30;67.60
7658;DHT22;8462;53.156;8.220;2023-06-26T14:03:03;26.50;67.80
7658;DHT22;8462;53.156;8.220;2023-06-26T14:05:32;26.70;67.40
7658;DHT22;8462;53.156;8.220;2023-06-26T14:08:02;26.80;67.30
7658;DHT22;8462;53.156;8.220;2023-06-26T14:10:29;26.90;66.80
7658;DHT22;8462;53.156;8.220;2023-06-26T14:12:58;26.90;65.50
7658;DHT22;8462;53.156;8.220;2023-06-26T14:15:25;26.80;64.80
7658;DHT22;8462;53.156;8.220;2023-06-26T14:17:53;26.70;64.70
7658;DHT22;8462;53.156;8.220;2023-06-26T14:20:21;26.60;65.80
7658;DHT22;8462;53.156;8.220;2023-06-26T14:22:49;26.50;66.00
7658;DHT22;8462;53.156;8.220;2023-06-26T14:25:17;26.40;66.40
7658;DHT22;8462;53.156;8.220;2023-06-26T14:27:44;26.40;66.30
7658;DHT22;8462;53.156;8.220;2023-06-26T14:30:12;26.40;66.10
7658;DHT22;8462;53.156;8.220;2023-06-26T14:32:39;26.40;66.40
7658;DHT22;8462;53.156;8.220;2023-06-26T14:35:06;26.40;66.60
7658;DHT22;8462;53.156;8.220;2023-06-26T14:37:36;26.30;65.70
7658;DHT22;8462;53.156;8.220;2023-06-26T14:40:06;26.20;66.00
7658;DHT22;8462;53.156;8.220;2023-06-26T14:42:35;26.10;66.00
7658;DHT22;8462;53.156;8.220;2023-06-26T14:45:02;26.00;66.30
7658;DHT22;8462;53.156;8.220;2023-06-26T14:47:29;26.00;66.70
7658;DHT22;8462;53.156;8.220;2023-06-26T14:49:56;26.00;67.00
7658;DHT22;8462;53.156;8.220;2023-06-26T14:52:23;26.20;66.70
7658;DHT22;8462;53.156;8.220;2023-06-26T14:54:50;26.20;66.20
7658;DHT22;8462;53.156;8.220;2023-06-26T14:57:17;26.20;66.10
7658;DHT22;8462;53.156;8.220;2023-06-26T14:59:45;26.20;65.10
7658;DHT22;8462;53.156;8.220;2023-06-26T15:02:12;26.10;65.00
7658;DHT22;8462;53.156;8.220;2023-06-26T15:04:39;26.00;64.70
7658;DHT22;8462;53.156;8.220;2023-06-26T15:07:06;26.00;65.00
7658;DHT22;8462;53.156;8.220;2023-06-26T15:09:34;26.10;65.40
7658;DHT22;8462;53.156;8.220;2023-06-26T15:12:01;26.20;65.30
7658;DHT22;8462;53.156;8.220;2023-06-26T15:14:28;26.30;65.40
7658;DHT22;8462;53.156;8.220;2023-06-26T15:16:56;26.20;63.80
7658;DHT22;8462;53.156;8.220;2023-06-26T15:19:23;26.00;64.00
7658;DHT22;8462;53.156;8.220;2023-06-26T15:21:50;26.00;64.80
7658;DHT22;8462;53.156;8.220;2023-06-26T15:24:17;25.80;63.90
7658;DHT22;8462;53.156;8.220;2023-06-26T15:26:44;25.70;64.70
7658;DHT22;8462;53.156;8.220;2023-06-26T15:29:11;25.70;65.70
7658;DHT22;8462;53.156;8.220;2023-06-26T15:31:40;25.80;64.90
7658;DHT22;8462;53.156;8.220;2023-06-26T15:34:08;25.70;65.20
7658;DHT22;8462;53.156;8.220;2023-06-26T15:36:35;25.60;64.70
7658;DHT22;8462;53.156;8.220;2023-06-26T15:39:02;25.50;65.10
7658;DHT22;8462;53.156;8.220;2023-06-26T15:41:29;25.50;65.60
7658;DHT22;8462;53.156;8.220;2023-06-26T15:43:56;25.50;65.50
7658;DHT22;8462;53.156;8.220;2023-06-26T15:46:23;25.50;65.90
7658;DHT22;8462;53.156;8.220;2023-06-26T15:48:50;25.60;66.00
7658;DHT22;8462;53.156;8.220;2023-06-26T15:51:18;25.60;65.40
7658;DHT22;8462;53.156;8.220;2023-06-26T15:53:46;25.60;65.80
7658;DHT22;8462;53.156;8.220;2023-06-26T15:56:13;25.60;65.00
7658;DHT22;8462;53.156;8.220;2023-06-26T15:58:40;25.60;65.20
7658;DHT22;8462;53.156;8.220;2023-06-26T16:01:10;25.50;65.60
7658;DHT22;8462;53.156;8.220;2023-06-26T16:03:37;25.50;66.20
7658;DHT22;8462;53.156;8.220;2023-06-26T16:06:05;25.40;64.80
7658;DHT22;8462;53.156;8.220;2023-06-26T16:08:35;25.30;65.50